createdAt,value
2023-02-24T00:02:08.352Z,65.90
2023-02-24T00:04:41.289Z,65.90
2023-02-24T00:07:14.587Z,65.80
2023-02-24T00:09:46.263Z,65.80
2023-02-24T00:12:19.151Z,65.80
2023-02-24T00:14:49.473Z,65.70
2023-02-24T00:17:19.779Z,65.60
2023-02-24T00:19:50.017Z,65.70
2023-02-24T00:22:20.233Z,65.50
2023-02-24T00:24:50.659Z,65.50
2023-02-24T00:27:20.885Z,65.60
2023-02-24T00:29:51.056Z,65.40
2023-02-24T00:32:21.529Z,65.40
2023-02-24T00:34:51.929Z,65.50
2023-02-24T00:37:25.592Z,65.30
2023-02-24T00:40:00.377Z,65.30
2023-02-24T00:42:30.685Z,65.30
2023-02-24T00:45:01.076Z,65.20
2023-02-24T00:47:31.557Z,65.30
2023-02-24T00:50:01.970Z,65.20
2023-02-24T00:52:32.344Z,65.10
2023-02-24T00:55:02.617Z,65.00
2023-02-24T00:57:34.890Z,65.00
2023-02-24T01:00:11.919Z,65.00
2023-02-24T01:02:42.159Z,64.90
2023-02-24T01:05:13.697Z,64.80
2023-02-24T01:07:43.971Z,64.70
2023-02-24T01:10:14.745Z,64.70
2023-02-24T01:13:02.570Z,64.50
2023-02-24T01:15:33.612Z,64.70
2023-02-24T01:18:03.951Z,64.70
2023-02-24T01:20:34.728Z,64.80
2023-02-24T01:23:05.070Z,64.90
2023-02-24T01:25:35.241Z,65.00
2023-02-24T01:28:05.518Z,65.00
2023-02-24T01:30:35.874Z,64.90
2023-02-24T01:33:06.235Z,64.90
2023-02-24T01:35:37.073Z,64.90
2023-02-24T01:38:07.355Z,65.00
2023-02-24T01:40:37.666Z,64.90
2023-02-24T01:43:12.103Z,64.90
2023-02-24T01:45:42.493Z,64.90
2023-02-24T01:48:14.217Z,64.90
2023-02-24T01:50:44.597Z,65.00
2023-02-24T01:53:15.591Z,65.00
2023-02-24T01:55:49.037Z,65.00
2023-02-24T01:58:28.231Z,64.90
2023-02-24T02:00:59.665Z,64.80
2023-02-24T02:03:43.510Z,64.90
2023-02-24T02:06:17.388Z,64.90
2023-02-24T02:08:47.932Z,64.90
2023-02-24T02:11:22.278Z,64.80
2023-02-24T02:13:54.822Z,64.90
2023-02-24T02:16:34.517Z,64.90
2023-02-24T02:19:33.609Z,65.00
2023-02-24T02:22:44.407Z,65.10
2023-02-24T02:25:14.574Z,65.10
2023-02-24T02:28:00.054Z,65.20
2023-02-24T02:30:58.203Z,65.10
2023-02-24T02:34:09.171Z,65.20
2023-02-24T02:36:48.484Z,65.30
2023-02-24T02:39:48.759Z,65.20
2023-02-24T02:42:32.789Z,65.30
2023-02-24T02:45:16.142Z,65.30
2023-02-24T02:48:05.964Z,65.30
2023-02-24T02:50:52.053Z,65.30
2023-02-24T02:53:22.264Z,65.30
2023-02-24T02:56:03.747Z,65.40
2023-02-24T02:58:39.865Z,65.30
2023-02-24T03:01:12.173Z,65.30
2023-02-24T03:03:50.915Z,65.30
2023-02-24T03:06:47.783Z,65.20
2023-02-24T03:09:28.597Z,65.20
2023-02-24T03:12:04.615Z,65.40
2023-02-24T03:14:39.227Z,65.50
2023-02-24T03:17:17.987Z,65.60
2023-02-24T03:19:55.785Z,65.60
2023-02-24T03:22:42.005Z,65.60
2023-02-24T03:25:12.626Z,65.70
2023-02-24T03:28:00.551Z,65.60
2023-02-24T03:31:12.519Z,65.60
2023-02-24T03:34:18.637Z,65.50
2023-02-24T03:36:50.217Z,65.60
2023-02-24T03:39:20.451Z,65.60
2023-02-24T03:41:58.136Z,65.50
2023-02-24T03:44:28.489Z,65.40
2023-02-24T03:46:58.940Z,65.40
2023-02-24T03:49:29.425Z,65.30
2023-02-24T03:52:34.604Z,65.20
2023-02-24T03:55:23.033Z,65.10
2023-02-24T03:58:17.466Z,65.20
2023-02-24T04:00:54.005Z,65.20
2023-02-24T04:03:41.383Z,65.10
2023-02-24T04:06:18.122Z,65.00
2023-02-24T04:09:17.808Z,65.00
2023-02-24T04:12:01.766Z,65.00
2023-02-24T04:14:46.336Z,64.80
2023-02-24T04:17:35.537Z,64.90
2023-02-24T04:20:18.508Z,64.80
2023-02-24T04:22:53.291Z,64.70
2023-02-24T04:25:27.265Z,64.80
2023-02-24T04:28:00.924Z,64.70
2023-02-24T04:30:35.691Z,64.70
2023-02-24T04:33:06.135Z,64.70
2023-02-24T04:35:37.900Z,64.70
2023-02-24T04:38:08.538Z,64.60
2023-02-24T04:40:39.155Z,64.40
2023-02-24T04:43:11.069Z,64.50
2023-02-24T04:45:42.030Z,64.40
2023-02-24T04:48:15.873Z,64.40
2023-02-24T04:50:47.094Z,64.40
2023-02-24T04:53:19.411Z,64.50
2023-02-24T04:55:50.591Z,64.40
2023-02-24T04:58:24.098Z,64.40
2023-02-24T05:00:55.095Z,64.30
2023-02-24T05:03:32.084Z,64.20
2023-02-24T05:06:02.856Z,64.20
2023-02-24T05:08:34.375Z,64.30
2023-02-24T05:11:07.375Z,64.30
2023-02-24T05:13:39.251Z,64.30
2023-02-24T05:16:11.169Z,64.30
2023-02-24T05:18:42.178Z,64.30
2023-02-24T05:21:53.501Z,64.30
2023-02-24T05:24:24.112Z,64.20
2023-02-24T05:27:00.063Z,64.30
2023-02-24T05:29:37.580Z,64.20
2023-02-24T05:32:09.708Z,64.10
2023-02-24T05:34:40.745Z,64.00
2023-02-24T05:37:12.222Z,63.90
2023-02-24T05:39:43.001Z,63.90
2023-02-24T05:42:13.319Z,64.00
2023-02-24T05:44:44.235Z,63.90
2023-02-24T05:47:14.438Z,63.90
2023-02-24T05:49:45.466Z,63.90
2023-02-24T05:52:16.345Z,63.80
2023-02-24T05:54:49.794Z,63.80
2023-02-24T05:57:29.112Z,63.80
2023-02-24T06:00:00.791Z,63.70
2023-02-24T06:02:38.985Z,63.50
2023-02-24T06:05:10.538Z,63.40
2023-02-24T06:07:40.867Z,63.30
2023-02-24T06:10:12.595Z,63.30
2023-02-24T06:12:42.792Z,63.20
2023-02-24T06:15:14.220Z,63.10
2023-02-24T06:17:45.268Z,63.00
2023-02-24T06:20:17.315Z,62.80
2023-02-24T06:22:47.703Z,62.80
2023-02-24T06:25:20.191Z,62.80
2023-02-24T06:27:56.282Z,62.70
2023-02-24T06:30:28.638Z,62.60
2023-02-24T06:32:58.943Z,62.60
2023-02-24T06:35:29.359Z,62.60
2023-02-24T06:38:00.342Z,62.50
2023-02-24T06:40:30.966Z,62.50
2023-02-24T06:43:01.398Z,62.50
2023-02-24T06:45:32.627Z,62.50
2023-02-24T06:48:02.829Z,62.30
2023-02-24T06:50:34.490Z,62.30
2023-02-24T06:53:04.756Z,62.30
2023-02-24T06:55:37.230Z,62.30
2023-02-24T06:58:07.586Z,62.20
2023-02-24T07:00:40.883Z,62.20
2023-02-24T07:03:16.744Z,62.20
2023-02-24T07:06:18.459Z,62.20
2023-02-24T07:08:50.090Z,62.10
2023-02-24T07:11:21.078Z,62.20
2023-02-24T07:13:52.180Z,62.20
2023-02-24T07:16:27.297Z,62.20
2023-02-24T07:19:06.601Z,62.20
2023-02-24T07:21:41.355Z,62.20
2023-02-24T07:24:15.100Z,62.30
2023-02-24T07:26:46.869Z,62.30
2023-02-24T07:29:18.337Z,62.40
2023-02-24T07:31:50.535Z,62.40
2023-02-24T07:34:25.152Z,62.30
2023-02-24T07:36:57.122Z,62.30
2023-02-24T07:39:28.111Z,62.20
2023-02-24T07:41:58.850Z,62.20
2023-02-24T07:44:30.966Z,62.20
2023-02-24T07:47:01.890Z,62.20
2023-02-24T07:49:32.374Z,62.20
2023-02-24T07:52:03.600Z,62.20
2023-02-24T07:54:33.895Z,62.10
2023-02-24T07:57:04.276Z,62.10
2023-02-24T07:59:36.823Z,62.10
2023-02-24T08:02:09.287Z,62.10
2023-02-24T08:04:42.873Z,61.90
2023-02-24T08:07:16.021Z,61.90
2023-02-24T08:09:46.542Z,61.90
2023-02-24T08:12:22.919Z,61.90
2023-02-24T08:14:55.587Z,61.80
2023-02-24T08:17:28.479Z,61.90
2023-02-24T08:20:14.575Z,61.90
2023-02-24T08:22:48.583Z,61.90
2023-02-24T08:25:24.147Z,61.90
2023-02-24T08:28:07.494Z,61.90
2023-02-24T08:30:41.852Z,61.80
2023-02-24T08:33:24.717Z,61.90
2023-02-24T08:36:02.790Z,61.80
2023-02-24T08:38:46.568Z,61.80
2023-02-24T08:41:22.687Z,61.80
2023-02-24T08:43:53.175Z,61.70
2023-02-24T08:46:32.121Z,61.80
2023-02-24T08:49:02.931Z,61.70
2023-02-24T08:51:37.365Z,61.70
2023-02-24T08:54:17.000Z,61.80
2023-02-24T08:56:57.468Z,61.80
2023-02-24T08:59:42.704Z,62.50
2023-02-24T09:02:28.965Z,61.70
2023-02-24T09:05:01.178Z,61.70
2023-02-24T09:07:42.344Z,61.80
2023-02-24T09:10:19.959Z,61.70
2023-02-24T09:12:50.907Z,61.70
2023-02-24T09:15:22.303Z,61.70
2023-02-24T09:17:52.901Z,61.70
2023-02-24T09:20:45.315Z,61.70
2023-02-24T09:23:21.754Z,61.70
2023-02-24T09:25:52.123Z,61.70
2023-02-24T09:28:28.495Z,61.70
2023-02-24T09:31:00.946Z,61.60
2023-02-24T09:33:41.588Z,61.70
2023-02-24T09:36:21.717Z,61.70
2023-02-24T09:39:04.094Z,61.70
2023-02-24T09:42:00.087Z,61.70
2023-02-24T09:45:02.226Z,61.70
2023-02-24T09:47:58.482Z,61.50
2023-02-24T09:51:02.252Z,61.60
2023-02-24T09:53:44.073Z,61.70
2023-02-24T09:56:29.651Z,61.70
2023-02-24T09:59:11.928Z,61.70
2023-02-24T10:02:15.590Z,61.60
2023-02-24T10:05:08.677Z,61.50
2023-02-24T10:07:46.523Z,61.70
2023-02-24T10:10:32.010Z,61.70
2023-02-24T10:13:16.303Z,61.70
2023-02-24T10:15:57.326Z,61.70
2023-02-24T10:19:02.894Z,61.80
2023-02-24T10:21:51.482Z,61.70
2023-02-24T10:24:31.045Z,61.80
2023-02-24T10:27:08.856Z,61.80
2023-02-24T10:30:12.605Z,61.80
2023-02-24T10:32:53.266Z,61.70
2023-02-24T10:35:27.697Z,61.80
2023-02-24T10:38:06.923Z,61.80
2023-02-24T10:40:59.604Z,61.80
2023-02-24T10:43:33.280Z,61.70
2023-02-24T10:46:22.232Z,61.80
2023-02-24T10:49:02.441Z,61.90
2023-02-24T10:51:38.917Z,61.90
2023-02-24T10:54:32.913Z,61.90
2023-02-24T10:57:20.434Z,61.90
2023-02-24T11:00:52.940Z,61.80
2023-02-24T11:03:48.017Z,61.90
2023-02-24T11:06:52.951Z,62.00
2023-02-24T11:09:31.850Z,62.00
2023-02-24T11:12:46.501Z,62.10
2023-02-24T11:15:51.172Z,62.00
2023-02-24T11:18:32.578Z,62.00
2023-02-24T11:21:12.972Z,62.10
2023-02-24T11:23:56.479Z,62.10
2023-02-24T11:26:39.944Z,62.10
2023-02-24T11:29:31.563Z,62.10
2023-02-24T11:32:15.388Z,62.10
2023-02-24T11:35:24.076Z,62.10
2023-02-24T11:38:30.789Z,62.10
2023-02-24T11:41:24.030Z,62.00
2023-02-24T11:44:18.132Z,62.10
2023-02-24T11:47:02.285Z,62.10
2023-02-24T11:49:54.930Z,62.10
2023-02-24T11:52:43.455Z,62.10
2023-02-24T11:55:44.149Z,62.10
2023-02-24T11:58:30.229Z,62.10
2023-02-24T12:01:35.386Z,62.10
2023-02-24T12:04:31.270Z,62.00
2023-02-24T12:07:30.297Z,62.10
2023-02-24T12:10:16.742Z,62.20
2023-02-24T12:13:10.864Z,62.20
2023-02-24T12:15:48.430Z,62.20
2023-02-24T12:18:24.353Z,62.20
2023-02-24T12:20:57.446Z,62.20
2023-02-24T12:23:34.805Z,62.10
2023-02-24T12:26:23.427Z,62.20
2023-02-24T12:29:05.627Z,62.10
2023-02-24T12:32:03.364Z,62.20
2023-02-24T12:34:33.658Z,62.10
2023-02-24T12:37:37.279Z,62.30
2023-02-24T12:40:29.338Z,62.10
2023-02-24T12:43:25.507Z,62.20
2023-02-24T12:46:09.105Z,62.30
2023-02-24T12:49:18.035Z,62.40
2023-02-24T12:52:19.809Z,62.20
2023-02-24T12:54:55.890Z,62.30
2023-02-24T12:57:35.800Z,62.30
2023-02-24T13:00:13.944Z,62.40
2023-02-24T13:02:53.468Z,62.30
2023-02-24T13:05:53.843Z,62.30
2023-02-24T13:08:45.928Z,62.30
2023-02-24T13:11:30.323Z,62.40
2023-02-24T13:14:11.470Z,62.30
2023-02-24T13:16:43.248Z,62.30
2023-02-24T13:19:33.631Z,62.40
2023-02-24T13:22:15.660Z,62.20
2023-02-24T13:25:00.097Z,62.30
2023-02-24T13:27:34.084Z,62.30
2023-02-24T13:30:08.044Z,62.40
2023-02-24T13:33:19.511Z,62.40
2023-02-24T13:35:52.856Z,62.30
2023-02-24T13:38:38.510Z,62.40
2023-02-24T13:41:30.386Z,62.40
2023-02-24T13:44:24.725Z,62.30
2023-02-24T13:47:19.591Z,62.30
2023-02-24T13:50:07.853Z,62.40
2023-02-24T13:53:05.396Z,62.40
2023-02-24T13:56:09.759Z,62.40
2023-02-24T13:59:16.284Z,62.30
2023-02-24T14:02:19.964Z,62.40
2023-02-24T14:05:00.064Z,62.40
2023-02-24T14:07:39.781Z,62.50
2023-02-24T14:10:28.682Z,62.40
2023-02-24T14:13:16.927Z,62.40
2023-02-24T14:15:49.197Z,62.40
2023-02-24T14:18:28.971Z,62.50
2023-02-24T14:21:01.010Z,62.40
2023-02-24T14:23:36.470Z,62.50
2023-02-24T14:26:14.573Z,62.40
2023-02-24T14:28:57.361Z,62.40
2023-02-24T14:31:28.990Z,62.50
2023-02-24T14:34:10.176Z,62.50
2023-02-24T14:36:45.447Z,62.50
2023-02-24T14:39:22.997Z,63.20
2023-02-24T14:42:05.546Z,62.50
2023-02-24T14:44:36.593Z,63.30
2023-02-24T14:47:12.104Z,63.30
2023-02-24T14:49:42.590Z,62.50
2023-02-24T14:52:28.731Z,62.50
2023-02-24T14:55:17.387Z,62.40
2023-02-24T14:58:03.076Z,62.40
2023-02-24T15:00:43.769Z,62.50
2023-02-24T15:03:19.822Z,62.60
2023-02-24T15:05:55.675Z,62.50
2023-02-24T15:08:45.989Z,62.50
2023-02-24T15:11:19.023Z,62.40
2023-02-24T15:13:51.804Z,62.60
2023-02-24T15:16:31.008Z,62.60
2023-02-24T15:19:03.288Z,62.60
2023-02-24T15:21:44.381Z,62.60
2023-02-24T15:24:44.022Z,62.50
2023-02-24T15:27:17.251Z,62.40
2023-02-24T15:29:59.671Z,62.60
2023-02-24T15:32:32.964Z,62.60
2023-02-24T15:35:04.040Z,62.60
2023-02-24T15:37:44.361Z,62.70
2023-02-24T15:40:25.981Z,62.50
2023-02-24T15:43:09.776Z,62.60
2023-02-24T15:45:42.073Z,62.60
2023-02-24T15:48:29.984Z,62.60
2023-02-24T15:51:06.384Z,62.50
2023-02-24T15:53:36.654Z,62.60
2023-02-24T15:56:07.612Z,62.60
2023-02-24T15:58:40.188Z,62.60
2023-02-24T16:01:15.442Z,62.60
2023-02-24T16:03:45.850Z,62.60
2023-02-24T16:06:22.071Z,62.60
2023-02-24T16:08:54.467Z,62.50
2023-02-24T16:11:31.017Z,62.60
2023-02-24T16:14:02.257Z,62.60
2023-02-24T16:16:34.992Z,62.60
2023-02-24T16:19:05.290Z,62.60
2023-02-24T16:21:35.600Z,62.60
2023-02-24T16:24:05.881Z,62.60
2023-02-24T16:26:40.843Z,62.60
2023-02-24T16:29:17.387Z,62.60
2023-02-24T16:31:47.847Z,62.60
2023-02-24T16:34:18.569Z,62.60
2023-02-24T16:36:49.854Z,62.70
2023-02-24T16:39:20.100Z,62.60
2023-02-24T16:41:50.305Z,62.70
2023-02-24T16:44:20.581Z,62.60
2023-02-24T16:46:50.843Z,62.50
2023-02-24T16:49:22.600Z,62.60
2023-02-24T16:51:52.804Z,62.60
2023-02-24T16:54:23.781Z,62.60
2023-02-24T16:56:54.012Z,62.60
2023-02-24T16:59:24.362Z,62.60
2023-02-24T17:01:58.114Z,62.60
2023-02-24T17:04:28.625Z,62.60
2023-02-24T17:06:58.835Z,62.60
2023-02-24T17:09:31.202Z,62.70
2023-02-24T17:12:02.286Z,62.60
2023-02-24T17:14:32.651Z,62.60
2023-02-24T17:17:03.087Z,62.60
2023-02-24T17:19:33.402Z,62.60
2023-02-24T17:22:03.617Z,62.60
2023-02-24T17:24:33.987Z,62.70
2023-02-24T17:27:05.903Z,62.70
2023-02-24T17:29:36.176Z,62.70
2023-02-24T17:32:06.588Z,62.70
2023-02-24T17:34:37.141Z,62.70
2023-02-24T17:37:07.500Z,62.70
2023-02-24T17:39:37.791Z,62.70
2023-02-24T17:42:08.050Z,62.70
2023-02-24T17:44:38.755Z,62.80
2023-02-24T17:47:10.689Z,62.70
2023-02-24T17:49:41.453Z,62.70
2023-02-24T17:52:11.995Z,62.70
2023-02-24T17:54:42.612Z,62.70
2023-02-24T17:57:12.896Z,62.70
2023-02-24T17:59:47.804Z,62.70
2023-02-24T18:02:20.522Z,62.70
2023-02-24T18:04:53.872Z,62.80
2023-02-24T18:07:24.379Z,62.70
2023-02-24T18:09:55.506Z,62.80
2023-02-24T18:12:26.351Z,62.70
2023-02-24T18:15:07.787Z,62.80
2023-02-24T18:17:40.646Z,62.80
2023-02-24T18:20:11.810Z,62.80
2023-02-24T18:22:42.094Z,62.80
2023-02-24T18:25:13.040Z,62.80
2023-02-24T18:27:43.302Z,62.80
2023-02-24T18:30:14.893Z,62.80
2023-02-24T18:32:46.478Z,62.80
2023-02-24T18:35:17.606Z,62.80
2023-02-24T18:37:47.803Z,62.80
2023-02-24T18:40:18.185Z,62.80
2023-02-24T18:42:50.621Z,62.80
2023-02-24T18:45:25.294Z,62.80
2023-02-24T18:47:55.856Z,62.80
2023-02-24T18:50:26.842Z,62.90
2023-02-24T18:52:57.047Z,62.80
2023-02-24T18:55:27.916Z,62.80
2023-02-24T18:57:58.653Z,62.80
2023-02-24T19:00:28.889Z,62.80
2023-02-24T19:02:59.108Z,62.80
2023-02-24T19:05:37.883Z,62.90
2023-02-24T19:08:09.021Z,62.90
2023-02-24T19:10:41.900Z,62.90
2023-02-24T19:13:13.723Z,62.90
2023-02-24T19:15:46.370Z,62.80
2023-02-24T19:18:18.606Z,62.80
2023-02-24T19:20:49.038Z,62.90
2023-02-24T19:23:19.376Z,62.90
2023-02-24T19:25:49.681Z,62.90
2023-02-24T19:28:20.154Z,62.90
2023-02-24T19:30:50.639Z,62.90
2023-02-24T19:33:20.933Z,62.90
2023-02-24T19:35:53.253Z,62.90
2023-02-24T19:38:24.064Z,62.90
2023-02-24T19:40:54.459Z,62.90
2023-02-24T19:43:24.625Z,62.90
2023-02-24T19:45:54.969Z,62.90
2023-02-24T19:48:25.315Z,62.90
2023-02-24T19:50:55.910Z,62.90
2023-02-24T19:53:26.099Z,62.90
2023-02-24T19:55:56.457Z,62.90
2023-02-24T19:58:26.776Z,63.00
2023-02-24T20:00:57.030Z,63.00
2023-02-24T20:03:29.988Z,63.00
2023-02-24T20:06:00.542Z,63.00
2023-02-24T20:08:31.068Z,63.00
2023-02-24T20:11:03.964Z,63.00
2023-02-24T20:13:34.549Z,63.00
2023-02-24T20:16:18.409Z,63.10
2023-02-24T20:18:49.070Z,63.00
2023-02-24T20:21:19.471Z,63.10
2023-02-24T20:23:49.707Z,63.10
2023-02-24T20:26:21.187Z,63.10
2023-02-24T20:28:52.044Z,63.20
2023-02-24T20:31:22.886Z,63.20
2023-02-24T20:33:53.285Z,63.20
2023-02-24T20:36:26.952Z,63.30
2023-02-24T20:39:00.301Z,63.30
2023-02-24T20:41:31.201Z,63.40
2023-02-24T20:44:01.588Z,63.40
2023-02-24T20:46:34.399Z,63.40
2023-02-24T20:49:08.290Z,63.40
2023-02-24T20:51:39.708Z,63.50
2023-02-24T20:54:11.773Z,63.50
2023-02-24T20:56:43.994Z,63.40
2023-02-24T20:59:20.047Z,63.50
2023-02-24T21:01:51.629Z,63.50
2023-02-24T21:04:24.167Z,63.50
2023-02-24T21:06:55.876Z,63.50
2023-02-24T21:09:26.191Z,63.50
2023-02-24T21:11:56.782Z,63.60
2023-02-24T21:14:27.019Z,63.60
2023-02-24T21:16:57.778Z,63.60
2023-02-24T21:19:28.164Z,63.50
2023-02-24T21:21:58.452Z,63.60
2023-02-24T21:24:28.747Z,63.60
2023-02-24T21:26:59.635Z,63.50
2023-02-24T21:29:30.083Z,63.70
2023-02-24T21:32:01.048Z,63.60
2023-02-24T21:34:32.250Z,63.60
2023-02-24T21:37:03.248Z,63.60
2023-02-24T21:39:33.539Z,63.60
2023-02-24T21:42:03.754Z,63.60
2023-02-24T21:44:34.140Z,63.80
2023-02-24T21:47:04.339Z,64.00
2023-02-24T21:49:34.861Z,64.20
2023-02-24T21:52:07.121Z,64.30
2023-02-24T21:54:38.961Z,64.50
2023-02-24T21:57:09.225Z,64.70
2023-02-24T21:59:39.437Z,64.80
2023-02-24T22:02:13.995Z,65.10
2023-02-24T22:04:44.203Z,65.60
2023-02-24T22:07:14.453Z,65.90
2023-02-24T22:09:44.722Z,66.10
2023-02-24T22:12:14.970Z,66.30
2023-02-24T22:14:45.234Z,66.50
2023-02-24T22:17:15.429Z,66.70
2023-02-24T22:19:45.639Z,66.50
2023-02-24T22:22:15.875Z,66.60
2023-02-24T22:24:46.117Z,66.60
2023-02-24T22:27:16.334Z,66.70
2023-02-24T22:29:47.014Z,66.60
2023-02-24T22:32:18.074Z,66.70
2023-02-24T22:34:48.431Z,66.70
2023-02-24T22:37:19.200Z,66.70
2023-02-24T22:39:49.826Z,66.60
2023-02-24T22:42:20.142Z,66.60
2023-02-24T22:44:50.319Z,66.50
2023-02-24T22:47:20.654Z,66.50
2023-02-24T22:49:50.849Z,66.60
2023-02-24T22:52:22.018Z,66.40
2023-02-24T22:54:54.741Z,66.40
2023-02-24T22:57:24.990Z,66.50
2023-02-24T22:59:55.189Z,66.20
2023-02-24T23:02:25.414Z,66.10
2023-02-24T23:04:55.623Z,66.30
2023-02-24T23:07:25.873Z,66.10
2023-02-24T23:09:56.118Z,66.20
2023-02-24T23:12:26.439Z,66.00
2023-02-24T23:14:56.783Z,66.00
2023-02-24T23:17:27.067Z,66.10
2023-02-24T23:20:00.300Z,66.10
2023-02-24T23:22:30.646Z,66.10
2023-02-24T23:25:00.971Z,66.10
2023-02-24T23:27:31.329Z,66.20
2023-02-24T23:30:03.009Z,66.20
2023-02-24T23:32:34.576Z,66.20
2023-02-24T23:35:05.427Z,66.10
2023-02-24T23:37:35.639Z,66.00
2023-02-24T23:40:26.532Z,66.80
2023-02-24T23:42:56.749Z,66.00
2023-02-24T23:45:27.006Z,66.00
2023-02-24T23:47:58.780Z,65.90
2023-02-24T23:50:29.045Z,65.90
2023-02-24T23:52:59.717Z,65.80
2023-02-24T23:55:32.334Z,65.70
2023-02-24T23:58:03.121Z,65.70
